Archival Weather

Eureka

Eureka, Canada (CWEU)

Report from: Wednesday, January 25, 2023 4:00 PM CST
Current time: Tuesday, February 27, 2024 3:12 AM CST

Current weather – Weather history – Daily summaries
Weather forecast

Present weatherIce crystals
Temperature-40.0°C (-40.0°F)
Wind chill-54.4°C (-65.9°F)
Dew point-45.0°C (-49.0°F)
Winds 9 kts (4.6 m/s, 10.4 mph) North-Northeast (20°)
Visibility7 mi. (11.3 km)
Clouds Few clouds 23,000 ft. (7,010 m)
Altimeter29.86 in.Hg (1011 mB)
Relative humidity58 %
Density altitude-7,404 ft. (-2,257 m)
Sea-level pressure101.3 kPa (1013 mB, 29.93 in.Hg)
Flight conditions Visual Meteorological Conditions
Raw dataCWEU 252200Z 02009KT 7SM IC FEW230 M40/M45 A2986 RMK CI1 IC HVY SLP134
An error has occurred. This application may no longer respond until reloaded. Reload 🗙